Sapeacu, Brazil
Current Conditions -  °F | °C
As of 7:00 AM on Friday 31 Oct 2014 (Local Time) from SBSV Reporting Station
Scattered Clouds Scattered Clouds  
Wind Chill: 26°   Ceiling: Unl
Heat Index: 27°   Visibility: 6mi
Dew Point: 21°   Wind: 14mph
Humidity: 74%   Direction: 70°ENE
Pressure: 30"   Gusts: NA
Location:  12.73°S, 39.18°W
Report Text: SBSV 311000Z 07012KT 9999 SCT017 SCT080 26/21 Q1016
Loading
Personal Weather Stations






























Interactive Weather Map
Tropical Storm Tracking
New forecast layout! Learn more

10-Day Weather Forecast

Advertisements
Track Severe Weather on mobile